Time;durP1;ratioP1;P1;durP2;ratioP2;P2;SDS_P1;SDS_P2;PMS_P1;PMS_P2;Temp;Humidity;BMP_temperature;BMP_pressure;BME280_temperature;BME280_humidity;BME280_pressure;Samples;Min_cycle;Max_cycle;Signal;HPM_P1;HPM_P2
2022/05/14 00:01:32;;;;;;;5.57;1.45;;;11.80;99.90;;;10.49;100.00;98031.16;4980554;28;20089;-68
2022/05/14 00:03:59;;;;;;;7.63;1.52;;;11.70;99.90;;;10.32;100.00;98026.56;4982871;28;20050;-69
2022/05/14 00:06:29;;;;;;;5.40;1.40;;;11.50;99.90;;;10.29;100.00;98027.53;4965354;28;20101;-68
2022/05/14 00:09:01;;;;;;;4.57;1.55;;;11.40;99.90;;;10.10;100.00;98035.03;4981761;28;20520;-68
2022/05/14 00:14:14;;;;;;;3.53;1.17;;;11.20;99.90;;;10.27;100.00;98030.13;4983905;28;20136;-68
2022/05/14 00:16:42;;;;;;;4.80;1.60;;;11.10;99.90;;;9.95;100.00;98032.97;4984927;28;20054;-69
2022/05/14 00:19:09;;;;;;;4.60;1.42;;;11.10;99.90;;;10.02;100.00;98026.69;5003301;28;20141;-69
2022/05/14 00:21:37;;;;;;;2.95;1.17;;;11.00;99.90;;;10.36;100.00;98023.81;4982995;28;20081;-69
2022/05/14 00:24:06;;;;;;;6.55;1.38;;;11.10;99.90;;;10.46;100.00;98019.16;4979067;28;20085;-69
2022/05/14 00:26:35;;;;;;;2.13;1.05;;;11.10;99.90;;;10.32;100.00;98016.19;4981096;28;20061;-69
2022/05/14 00:29:06;;;;;;;3.53;1.40;;;11.10;99.90;;;10.03;100.00;98025.78;4983407;28;20054;-69
2022/05/14 00:31:34;;;;;;;2.72;1.20;;;11.10;99.90;;;10.20;100.00;98023.47;4984439;28;20078;-69
2022/05/14 00:34:01;;;;;;;6.30;1.30;;;11.10;99.90;;;10.19;100.00;98021.75;4965539;28;20050;-69
2022/05/14 00:36:28;;;;;;;5.45;1.30;;;11.00;99.90;;;10.13;100.00;98016.78;4979070;28;20552;-69
2022/05/14 00:38:55;;;;;;;3.20;1.05;;;11.00;99.90;;;10.35;100.00;98018.69;4997202;28;20508;-69
2022/05/14 00:41:23;;;;;;;4.78;1.52;;;10.90;99.90;;;10.43;100.00;98019.28;4980873;28;20097;-69
2022/05/14 00:43:54;;;;;;;5.47;1.30;;;11.00;99.90;;;10.36;100.00;98015.19;4996521;28;20046;-68
2022/05/14 00:46:40;;;;;;;4.30;1.70;;;11.00;99.90;;;10.34;100.00;98025.63;4995294;28;20058;-69
2022/05/14 00:49:10;;;;;;;4.95;1.63;;;11.00;99.90;;;10.44;100.00;98007.97;4983099;28;20069;-68
2022/05/14 00:51:41;;;;;;;6.88;2.00;;;11.10;99.90;;;10.38;100.00;98021.19;4968051;28;20120;-69
2022/05/14 00:54:15;;;;;;;5.38;1.42;;;11.10;99.90;;;10.27;100.00;98021.50;4978520;28;20074;-69
2022/05/14 00:56:51;;;;;;;6.05;2.00;;;11.00;99.90;;;10.21;100.00;98024.31;4980223;28;20112;-68
2022/05/14 00:59:21;;;;;;;6.05;1.48;;;11.00;99.90;;;10.00;100.00;98015.50;4969637;28;20058;-69
2022/05/14 01:01:49;;;;;;;6.82;1.60;;;10.90;99.90;;;10.22;100.00;98023.44;4981627;28;20132;-69
2022/05/14 01:04:19;;;;;;;3.90;1.40;;;10.90;99.90;;;10.11;100.00;98017.75;4981142;28;20050;-69
2022/05/14 01:06:56;;;;;;;3.20;1.20;;;10.90;99.90;;;10.15;100.00;98024.50;4987610;28;20145;-69
2022/05/14 01:09:24;;;;;;;3.13;1.15;;;10.90;99.90;;;10.15;100.00;98021.91;4969181;28;20409;-69
2022/05/14 01:11:54;;;;;;;4.55;1.25;;;10.90;99.90;;;10.12;100.00;98017.69;4998997;28;20184;-69
2022/05/14 01:14:22;;;;;;;5.25;1.58;;;10.80;99.90;;;10.14;100.00;98017.63;4984085;28;20065;-68
2022/05/14 01:16:51;;;;;;;4.82;1.90;;;10.80;99.90;;;10.09;100.00;98017.78;4981420;28;20131;-69
2022/05/14 01:19:18;;;;;;;3.55;1.25;;;10.80;99.90;;;10.16;100.00;98018.44;4985899;28;20397;-68
2022/05/14 01:22:52;;;;;;;5.40;1.52;;;10.80;99.90;;;9.85;100.00;98022.03;4989519;28;20054;-68
2022/05/14 01:28:44;;;;;;;4.93;1.20;;;10.70;99.90;;;10.00;100.00;98015.50;4980884;28;20125;-69
2022/05/14 01:31:11;;;;;;;3.50;1.13;;;10.60;99.90;;;9.86;100.00;98018.56;4987123;28;20501;-69
2022/05/14 01:33:38;;;;;;;3.30;1.05;;;10.60;99.90;;;9.82;100.00;98015.19;4988428;28;20100;-69
2022/05/14 01:36:07;;;;;;;3.13;1.10;;;10.60;99.90;;;9.92;100.00;98017.50;4984383;28;20144;-69
2022/05/14 01:38:35;;;;;;;3.63;1.00;;;10.50;99.90;;;9.66;100.00;98018.34;4981702;28;20050;-69
2022/05/14 01:41:02;;;;;;;3.38;1.15;;;10.40;99.90;;;9.61;100.00;98014.16;4983332;28;20078;-69
2022/05/14 01:43:30;;;;;;;3.75;1.33;;;10.30;99.90;;;9.49;100.00;98024.91;4983303;28;20065;-69
2022/05/14 01:45:58;;;;;;;5.68;1.30;;;10.20;99.90;;;9.55;100.00;98014.34;4970375;28;20141;-69
2022/05/14 01:48:26;;;;;;;7.47;1.55;;;10.20;99.90;;;9.67;100.00;98010.53;4997364;28;20425;-69
2022/05/14 01:50:53;;;;;;;4.57;1.08;;;10.20;99.90;;;9.68;100.00;98011.38;4987099;28;20077;-69
2022/05/14 01:53:20;;;;;;;4.60;1.20;;;10.30;99.90;;;9.40;100.00;98009.66;4988686;28;20094;-69
2022/05/14 01:55:47;;;;;;;4.63;1.30;;;10.20;99.90;;;9.65;100.00;98004.56;4980843;28;20077;-71
2022/05/14 02:00:59;;;;;;;3.47;1.10;;;10.20;99.90;;;9.37;100.00;98002.81;4984325;28;20457;-69
2022/05/14 02:03:26;;;;;;;4.28;1.27;;;10.20;99.90;;;9.43;100.00;97999.19;4983547;28;20060;-69
2022/05/14 02:05:53;;;;;;;5.00;1.30;;;10.10;99.90;;;9.14;100.00;98003.50;4984728;28;20552;-69
2022/05/14 02:08:20;;;;;;;3.22;1.40;;;10.10;99.90;;;9.02;100.00;98006.47;4983235;28;20109;-68
2022/05/14 02:10:48;;;;;;;5.32;2.20;;;;;;;8.64;100.00;98011.00;4967840;28;20129;-68
2022/05/14 02:13:28;;;;;;;3.85;1.20;;;;;;;8.78;100.00;98002.84;4985027;28;20132;-67
2022/05/14 02:16:00;;;;;;;5.57;1.50;;;;;;;8.91;100.00;98001.59;4982320;28;20121;-69
2022/05/14 02:18:29;;;;;;;3.70;1.55;;;;;;;8.79;100.00;98004.56;4982903;28;20089;-69
2022/05/14 02:20:57;;;;;;;3.70;1.35;;;;;;;8.68;100.00;98004.84;4986859;28;20070;-69
2022/05/14 02:23:28;;;;;;;3.90;1.75;;;;;;;8.42;100.00;98005.56;4989326;28;20085;-69
2022/05/14 02:26:30;;;;;;;4.43;1.30;;;;;;;8.58;100.00;98000.84;4984470;28;20054;-69
2022/05/14 02:29:56;;;;;;;6.07;1.50;;;;;;;8.71;100.00;98007.38;4982812;28;20088;-69
2022/05/14 02:33:08;;;;;;;3.28;1.13;;;;;;;8.87;100.00;97999.13;4985823;28;20089;-68
2022/05/14 02:36:18;;;;;;;3.63;1.40;;;;;;;8.92;100.00;97997.28;4987753;28;20073;-69
2022/05/14 02:39:28;;;;;;;5.90;1.10;;;;;;;8.91;100.00;97999.00;4980788;28;20050;-69
2022/05/14 02:42:37;;;;;;;3.85;1.35;;;;;;;8.85;100.00;98000.91;4982184;28;20069;-69
2022/05/14 02:45:47;;;;;;;2.97;1.30;;;;;;;8.79;100.00;98000.22;4982626;28;20069;-69
2022/05/14 02:48:56;;;;;;;4.03;1.15;;;;;;;8.85;100.00;98003.50;4967525;28;20161;-70
2022/05/14 02:52:05;;;;;;;2.17;1.10;;;;;;;8.94;100.00;98005.84;4985497;28;20062;-69
2022/05/14 02:55:17;;;;;;;4.80;1.23;;;;;;;8.76;100.00;98013.25;4985049;28;20134;-69
2022/05/14 03:02:09;;;;;;;2.92;1.00;;;;;;;8.87;100.00;98009.50;4964784;28;20117;-69
2022/05/14 03:05:20;;;;;;;2.10;0.98;;;;;;;8.77;100.00;98011.50;4985713;28;20058;-69
2022/05/14 03:08:29;;;;;;;3.08;0.95;;;;;;;8.74;100.00;98004.69;4982284;28;20096;-68
2022/05/14 03:11:39;;;;;;;3.47;1.00;;;;;;;8.58;100.00;98011.19;4989362;28;20161;-69
2022/05/14 03:14:49;;;;;;;3.92;1.67;;;;;;;8.23;100.00;98014.66;4984112;28;20062;-68
2022/05/14 03:18:00;;;;;;;3.47;1.80;;;;;;;7.92;100.00;98023.22;4968431;28;20081;-68
2022/05/14 03:20:29;;;;;;;3.17;1.60;;;;;;;7.73;100.00;98023.66;4984656;28;20508;-69
2022/05/14 03:22:56;;;;;;;5.75;1.67;;;;;;;7.53;100.00;98029.31;4983131;28;20078;-69
2022/05/14 03:25:25;;;;;;;4.65;1.77;;;;;;;7.23;100.00;98037.72;4983480;28;20061;-68
2022/05/14 03:27:52;;;;;;;10.02;2.15;;;;;;;7.00;100.00;98033.94;4983054;28;20074;-68
2022/05/14 03:30:19;;;;;;;6.10;1.90;;;8.60;99.90;;;7.03;100.00;98041.59;4984537;28;20066;-68
2022/05/14 03:32:46;;;;;;;5.10;1.90;;;8.50;99.90;;;7.19;100.00;98042.13;4987453;28;20558;-68
2022/05/14 03:35:14;;;;;;;6.18;2.03;;;8.40;99.90;;;7.04;100.00;98045.84;4969337;28;20137;-69
2022/05/14 03:37:42;;;;;;;7.10;1.80;;;8.30;99.90;;;6.99;100.00;98045.13;4984073;28;20064;-69
2022/05/14 03:40:10;;;;;;;3.30;1.60;;;8.30;99.90;;;6.95;100.00;98042.63;4985700;28;20047;-69
2022/05/14 03:42:37;;;;;;;2.75;1.50;;;8.30;99.90;;;7.05;100.00;98039.00;4985319;28;20490;-69
2022/05/14 03:45:05;;;;;;;3.72;1.42;;;8.20;99.90;;;7.38;100.00;98044.28;4979348;28;20053;-70
2022/05/14 03:47:32;;;;;;;3.03;1.38;;;8.20;99.90;;;7.65;100.00;98042.81;4968634;28;20073;-70
2022/05/14 03:50:00;;;;;;;3.55;1.83;;;8.40;99.90;;;7.74;100.00;98043.44;4985802;28;20136;-69
2022/05/14 03:52:27;;;;;;;2.75;1.08;;;8.50;99.90;;;7.93;100.00;98043.84;4983915;28;20054;-70
2022/05/14 03:54:54;;;;;;;3.13;1.13;;;8.60;99.90;;;8.04;100.00;98041.00;4967712;28;20098;-70
2022/05/14 03:57:21;;;;;;;3.92;1.30;;;8.70;99.90;;;8.08;100.00;98037.44;4981189;28;20154;-70
2022/05/14 03:59:48;;;;;;;2.83;1.45;;;8.80;99.90;;;8.09;100.00;98036.56;4983324;28;20168;-69
2022/05/14 04:02:15;;;;;;;2.72;1.27;;;8.70;99.90;;;8.11;100.00;98044.28;4987341;28;20042;-70
2022/05/14 04:04:43;;;;;;;2.55;1.00;;;8.80;99.90;;;8.22;100.00;98041.44;4982974;28;20125;-70
2022/05/14 04:07:10;;;;;;;3.33;1.48;;;8.80;99.90;;;8.10;100.00;98032.25;4981455;28;20054;-69
2022/05/14 04:09:37;;;;;;;5.90;1.83;;;8.90;99.90;;;8.25;100.00;98033.59;4998426;28;20113;-70
2022/05/14 04:12:04;;;;;;;2.45;1.20;;;8.90;99.90;;;8.07;100.00;98035.75;4982175;28;20070;-69
2022/05/14 04:14:31;;;;;;;4.57;1.88;;;9.00;99.90;;;7.70;100.00;98041.81;4978925;28;20082;-70
2022/05/14 04:17:00;;;;;;;4.75;1.48;;;;;;;7.85;100.00;98044.94;4983170;28;20202;-70
2022/05/14 04:19:28;;;;;;;6.22;1.90;;;;;;;7.70;100.00;98044.41;4980472;28;20065;-70
2022/05/14 04:21:55;;;;;;;4.55;1.52;;;8.70;99.90;;;7.57;100.00;98052.47;4984256;28;20078;-70
2022/05/14 04:24:22;;;;;;;4.28;1.30;;;8.80;99.90;;;7.64;100.00;98052.31;4980412;28;20070;-70
2022/05/14 04:26:49;;;;;;;3.92;1.50;;;8.70;99.90;;;7.61;100.00;98044.63;4984999;28;21099;-70
2022/05/14 04:29:16;;;;;;;7.72;2.13;;;8.70;99.90;;;7.50;100.00;98050.03;4983975;28;20125;-69
2022/05/14 04:31:43;;;;;;;3.17;1.38;;;8.60;99.90;;;7.63;100.00;98044.59;4983200;28;20042;-70
2022/05/14 04:34:11;;;;;;;3.22;1.30;;;8.60;99.90;;;7.61;100.00;98044.63;4981781;28;20059;-70
2022/05/14 04:36:39;;;;;;;5.38;1.88;;;8.60;99.90;;;7.49;100.00;98042.31;4967717;28;20058;-69
2022/05/14 04:39:06;;;;;;;4.57;1.73;;;8.50;99.90;;;7.23;100.00;98051.50;4986001;28;20105;-70
2022/05/14 04:41:33;;;;;;;4.88;1.70;;;8.50;99.90;;;7.08;100.00;98055.25;4982059;28;20047;-70
2022/05/14 04:44:00;;;;;;;4.72;2.15;;;8.50;99.90;;;7.11;100.00;98051.75;4977686;28;20509;-70
2022/05/14 04:46:28;;;;;;;7.65;2.25;;;8.40;99.90;;;6.96;100.00;98052.09;4978503;28;20580;-70
2022/05/14 04:48:54;;;;;;;4.47;1.52;;;8.40;99.90;;;6.99;100.00;98060.59;4982969;28;20126;-70
2022/05/14 04:51:22;;;;;;;6.38;1.92;;;8.40;99.90;;;7.00;100.00;98062.31;4979471;28;20082;-69
2022/05/14 04:53:49;;;;;;;5.18;2.10;;;8.30;99.90;;;6.82;100.00;98062.66;4979827;28;20129;-70
2022/05/14 04:56:16;;;;;;;5.40;2.10;;;8.30;99.90;;;6.82;100.00;98053.22;4981153;28;20047;-69
2022/05/14 04:58:43;;;;;;;5.03;1.60;;;8.40;99.90;;;7.42;100.00;98062.28;4981761;28;20088;-69
2022/05/14 05:01:10;;;;;;;2.60;1.33;;;8.40;99.90;;;7.93;100.00;98050.75;4979301;28;20129;-69
2022/05/14 05:03:37;;;;;;;2.60;1.20;;;8.60;99.90;;;8.13;100.00;98047.69;4970565;28;20050;-70
2022/05/14 05:06:06;;;;;;;2.22;1.05;;;8.90;99.90;;;8.26;100.00;98043.06;4981936;28;20168;-70
2022/05/14 05:08:33;;;;;;;2.95;1.33;;;9.20;99.90;;;8.52;100.00;98045.81;4963928;28;20122;-69
2022/05/14 05:11:00;;;;;;;2.42;1.30;;;9.40;99.90;;;8.74;100.00;98040.91;4981610;28;20146;-69
2022/05/14 05:13:30;;;;;;;5.32;1.25;;;9.60;99.90;;;8.99;100.00;98042.81;4979460;28;20589;-70
2022/05/14 05:15:57;;;;;;;4.00;1.30;;;9.70;99.90;;;8.83;100.00;98041.56;4981128;28;20511;-69
2022/05/14 05:18:25;;;;;;;2.85;1.20;;;9.90;99.90;;;8.96;100.00;98041.16;4979508;28;20146;-69
2022/05/14 05:20:54;;;;;;;4.50;1.67;;;10.00;99.90;;;9.04;100.00;98048.69;4979957;28;20049;-70
2022/05/14 05:23:24;;;;;;;3.33;1.70;;;10.00;99.90;;;9.42;100.00;98042.38;4976772;28;20055;-70
2022/05/14 05:25:51;;;;;;;3.42;1.50;;;10.20;99.90;;;9.65;100.00;98048.63;4979199;28;20565;-70
2022/05/14 05:28:18;;;;;;;3.28;1.55;;;10.40;99.90;;;9.75;100.00;98052.59;4981204;28;20165;-70
2022/05/14 05:30:46;;;;;;;8.20;2.58;;;10.60;99.90;;;9.91;100.00;98046.94;4980640;28;20101;-70
2022/05/14 05:33:18;;;;;;;3.88;2.13;;;10.80;99.90;;;9.94;100.00;98050.25;4980858;28;20141;-70
2022/05/14 05:35:45;;;;;;;6.13;1.77;;;11.00;99.90;;;9.63;100.00;98055.59;4979011;28;20050;-69
2022/05/14 05:38:12;;;;;;;3.65;1.60;;;11.00;99.90;;;9.67;100.00;98058.91;4982848;28;20064;-70
2022/05/14 05:40:40;;;;;;;3.78;1.20;;;11.00;99.90;;;9.89;100.00;98062.53;4983854;28;20057;-70
2022/05/14 05:43:09;;;;;;;4.05;1.55;;;11.10;99.90;;;9.98;100.00;98057.03;4977097;28;20078;-70
2022/05/14 05:45:40;;;;;;;6.70;1.45;;;11.10;99.90;;;9.88;100.00;98058.25;4983898;28;20077;-70
2022/05/14 05:48:07;;;;;;;5.07;1.40;;;11.20;99.90;;;9.94;100.00;98060.63;4984363;28;20050;-70
2022/05/14 05:50:35;;;;;;;3.97;1.23;;;11.40;99.90;;;10.13;100.00;98054.88;4983116;28;20101;-68
2022/05/14 05:53:02;;;;;;;4.38;1.67;;;11.40;99.90;;;10.18;100.00;98056.41;4985384;28;20089;-70
2022/05/14 05:58:19;;;;;;;7.00;1.65;;;11.70;99.90;;;10.22;100.00;98059.75;4974342;28;20606;-70
2022/05/14 06:00:47;;;;;;;5.40;1.67;;;11.80;99.90;;;10.58;100.00;98060.28;4978159;28;20054;-70
2022/05/14 06:03:14;;;;;;;7.03;1.88;;;11.90;99.90;;;10.63;100.00;98060.09;4983780;28;20415;-70
2022/05/14 06:05:41;;;;;;;3.72;1.27;;;11.90;99.90;;;11.07;100.00;98053.28;4976364;28;20527;-70
2022/05/14 06:08:11;;;;;;;7.80;1.35;;;12.00;99.90;;;11.43;100.00;98057.19;4986787;28;20098;-70
2022/05/14 06:10:39;;;;;;;2.65;1.38;;;12.20;99.90;;;11.55;100.00;98056.69;4980840;28;20149;-70
2022/05/14 06:13:08;;;;;;;5.75;1.58;;;12.50;99.90;;;11.65;100.00;98057.19;4983343;28;20596;-69
2022/05/14 06:15:36;;;;;;;6.65;1.13;;;12.60;99.90;;;11.70;100.00;98057.88;4979847;28;20057;-69
2022/05/14 06:18:04;;;;;;;7.75;1.88;;;12.80;99.90;;;12.06;100.00;98057.31;4980172;28;20475;-70
2022/05/14 06:20:32;;;;;;;3.45;1.20;;;13.00;99.90;;;12.24;100.00;98061.75;4981442;28;20050;-68
2022/05/14 06:23:01;;;;;;;3.45;1.00;;;13.20;99.90;;;12.33;100.00;98060.53;4983966;28;20066;-70
2022/05/14 06:25:28;;;;;;;3.88;1.50;;;13.50;99.90;;;12.73;100.00;98054.47;4983806;28;20042;-70
2022/05/14 06:27:55;;;;;;;3.80;1.20;;;13.70;99.90;;;12.95;100.00;98056.97;4982872;28;20125;-69
2022/05/14 06:30:22;;;;;;;3.55;1.15;;;14.00;99.90;;;13.21;100.00;98054.13;4980928;28;20093;-70
2022/05/14 06:32:49;;;;;;;3.88;1.00;;;14.20;99.90;;;13.55;100.00;98053.44;4981771;28;20081;-70
2022/05/14 06:35:16;;;;;;;5.35;1.02;;;14.40;99.90;;;13.62;100.00;98062.66;4984916;28;20046;-70
2022/05/14 06:37:45;;;;;;;5.88;1.10;;;14.70;99.90;;;13.52;100.00;98054.41;4983396;28;20437;-69
2022/05/14 06:40:12;;;;;;;7.35;1.02;;;14.80;99.90;;;13.56;100.00;98063.78;4984771;28;20046;-69
2022/05/14 06:42:39;;;;;;;4.95;1.33;;;14.90;99.90;;;13.61;100.00;98060.94;4986537;28;20097;-70
2022/05/14 06:45:07;;;;;;;7.22;1.20;;;15.00;99.90;;;13.72;100.00;98057.84;4981194;28;20120;-69
2022/05/14 06:47:35;;;;;;;6.90;1.30;;;15.10;99.90;;;13.78;100.00;98062.78;4989744;28;20065;-69
2022/05/14 06:50:05;;;;;;;6.03;1.20;;;15.30;99.90;;;14.31;100.00;98067.13;4987866;28;20129;-70
2022/05/14 06:52:33;;;;;;;3.75;0.90;;;15.30;99.90;;;14.38;100.00;98065.91;4984959;28;20101;-69
2022/05/14 06:55:01;;;;;;;5.43;1.10;;;15.50;99.90;;;14.28;100.00;98064.69;4984785;28;20436;-70
2022/05/14 06:57:31;;;;;;;2.60;0.90;;;15.70;99.90;;;14.81;100.00;98055.91;4983060;28;20098;-70
2022/05/14 06:59:58;;;;;;;5.00;0.80;;;15.90;99.90;;;15.11;100.00;98049.97;4980943;28;20067;-69
2022/05/14 07:02:27;;;;;;;3.10;0.90;;;16.10;99.90;;;15.20;100.00;98057.34;4979502;28;20114;-70
2022/05/14 07:07:42;;;;;;;3.88;0.98;;;16.50;99.90;;;15.76;100.00;98064.81;4980059;28;20484;-70
2022/05/14 07:10:09;;;;;;;4.93;1.00;;;16.80;99.90;;;16.00;100.00;98062.59;4981869;28;20522;-69
2022/05/14 07:12:36;;;;;;;5.28;1.00;;;17.10;99.90;;;16.14;100.00;98062.63;4978416;28;20050;-70
2022/05/14 07:15:06;;;;;;;3.65;0.80;;;17.30;99.90;;;16.44;100.00;98056.53;4981279;28;20103;-69
2022/05/14 07:17:33;;;;;;;8.15;1.20;;;17.40;99.90;;;15.93;100.00;98062.09;4994733;28;20082;-70
2022/05/14 07:20:00;;;;;;;4.10;1.08;;;17.60;99.90;;;16.27;100.00;98058.38;4979378;28;20181;-69
2022/05/14 07:22:26;;;;;;;3.33;1.00;;;17.60;99.90;;;16.53;100.00;98061.25;4981649;28;20046;-70
2022/05/14 07:24:53;;;;;;;5.15;1.10;;;17.70;99.90;;;16.54;100.00;98059.50;4981055;28;20428;-70
2022/05/14 07:27:20;;;;;;;6.53;1.27;;;17.70;99.90;;;16.47;100.00;98056.38;4984961;28;20534;-69
2022/05/14 07:29:47;;;;;;;3.55;1.40;;;17.70;99.90;;;16.58;100.00;98060.97;4984986;28;20101;-68
2022/05/14 07:32:18;;;;;;;4.45;1.02;;;17.70;99.90;;;16.83;100.00;98063.88;4982905;28;20104;-69
2022/05/14 07:34:46;;;;;;;6.22;1.10;;;17.80;99.90;;;16.84;100.00;98062.91;4968106;28;20564;-70
2022/05/14 07:37:18;;;;;;;7.32;1.13;;;17.90;99.90;;;16.83;100.00;98068.25;4982621;28;20095;-69
2022/05/14 07:39:56;;;;;;;6.03;1.30;;;17.90;99.90;;;16.88;100.00;98058.34;4984415;28;20046;-69
2022/05/14 07:42:50;;;;;;;4.45;0.93;;;18.00;99.90;;;16.78;100.00;98067.66;4980756;28;20133;-69
2022/05/14 07:45:29;;;;;;;5.82;1.10;;;18.00;99.90;;;16.77;100.00;98069.44;4982474;28;20064;-69
2022/05/14 07:47:58;;;;;;;4.30;1.00;;;17.90;99.90;;;16.84;100.00;98062.09;4978231;28;20046;-70
2022/05/14 07:50:25;;;;;;;7.80;0.90;;;17.90;99.90;;;17.14;100.00;98056.75;4978549;28;20137;-69
2022/05/14 07:52:52;;;;;;;3.50;0.98;;;18.10;99.90;;;17.05;100.00;98063.38;4978159;28;20170;-69
2022/05/14 07:55:20;;;;;;;4.88;0.90;;;18.20;99.90;;;17.11;100.00;98064.81;4976678;28;20618;-69
2022/05/14 07:57:47;;;;;;;4.80;0.95;;;18.30;99.90;;;17.41;100.00;98066.47;4980951;28;20583;-71
2022/05/14 08:00:15;;;;;;;6.50;1.42;;;18.50;99.90;;;17.44;100.00;98061.03;4977218;28;20050;-70
2022/05/14 08:02:44;;;;;;;3.60;1.00;;;18.50;99.90;;;17.32;100.00;98066.09;4978879;28;20061;-69
2022/05/14 08:05:14;;;;;;;7.13;1.10;;;18.40;99.90;;;17.21;100.00;98067.69;4980129;28;20060;-68
2022/05/14 08:07:42;;;;;;;3.97;0.90;;;18.50;99.90;;;17.54;100.00;98065.59;4979163;28;20592;-69
2022/05/14 08:10:11;;;;;;;6.18;1.10;;;18.50;99.90;;;17.80;100.00;98065.72;4981321;28;20144;-69
2022/05/14 08:12:42;;;;;;;5.88;1.50;;;18.60;99.90;;;17.87;100.00;98059.16;4975853;28;20086;-69
2022/05/14 08:15:12;;;;;;;4.65;0.95;;;18.70;99.90;;;17.84;100.00;98059.38;4980551;28;20051;-69
2022/05/14 08:17:40;;;;;;;5.25;1.17;;;18.60;99.90;;;17.71;100.00;98061.06;4978100;28;20046;-69
2022/05/14 08:20:09;;;;;;;8.10;1.10;;;18.50;99.90;;;17.24;100.00;98052.63;4973758;28;20169;-69
2022/05/14 08:25:22;;;;;;;4.10;1.33;;;18.20;99.90;;;17.32;100.00;98054.75;4975987;28;20078;-69
2022/05/14 08:27:49;;;;;;;5.13;1.00;;;18.20;99.90;;;17.75;100.00;98063.38;4977449;28;20121;-70
2022/05/14 08:30:24;;;;;;;6.18;1.20;;;18.50;99.90;;;17.92;100.00;98067.56;4977872;28;20058;-70
2022/05/14 08:32:52;;;;;;;4.78;1.10;;;18.80;99.90;;;18.14;100.00;98061.78;4978191;28;20109;-70
2022/05/14 08:35:19;;;;;;;4.53;0.63;;;19.00;99.90;;;18.59;100.00;98057.03;4979532;28;20085;-69
2022/05/14 08:37:50;;;;;;;4.10;0.88;;;19.20;99.90;;;18.58;100.00;98057.13;4974580;28;20053;-69
2022/05/14 08:40:22;;;;;;;2.63;0.73;;;19.60;99.90;;;19.03;100.00;98052.34;4983490;28;20479;-70
2022/05/14 08:43:03;;;;;;;6.25;1.05;;;19.70;99.90;;;19.70;100.00;98051.16;4980230;28;20489;-69
2022/05/14 08:45:36;;;;;;;6.88;1.35;;;20.20;99.90;;;19.69;100.00;98052.13;4983329;28;20051;-70
2022/05/14 08:48:21;;;;;;;6.25;0.75;;;20.50;99.40;;;19.93;100.00;98045.03;4982689;28;20138;-69
2022/05/14 08:51:12;;;;;;;3.28;0.68;;;20.90;98.30;;;20.30;100.00;98039.72;4983742;28;20124;-70
2022/05/14 08:53:40;;;;;;;5.25;1.15;;;21.40;98.70;;;19.22;100.00;98041.34;4982431;28;20181;-68
2022/05/14 08:56:53;;;;;;;3.83;0.70;;;21.40;96.40;;;20.88;100.00;98026.53;4980917;28;20184;-70
2022/05/14 08:59:34;;;;;;;16.13;1.63;;;21.40;97.10;;;20.00;100.00;98035.75;4976942;28;20054;-70
2022/05/14 09:02:26;;;;;;;7.65;1.05;;;21.70;95.90;;;20.83;100.00;98024.25;4980175;28;20266;-68
2022/05/14 09:05:03;;;;;;;4.78;0.88;;;21.70;94.70;;;20.28;100.00;98033.72;4994982;28;20125;-69
2022/05/14 09:07:30;;;;;;;4.65;0.80;;;21.80;95.00;;;20.97;100.00;98031.09;4979885;28;20046;-70
2022/05/14 09:10:09;;;;;;;2.72;0.85;;;21.70;94.90;;;21.02;100.00;98026.28;4981913;28;20166;-70
2022/05/14 09:12:57;;;;;;;5.97;0.85;;;21.50;94.60;;;22.21;100.00;98030.03;5011474;28;20468;-69
2022/05/14 09:15:31;;;;;;;5.70;0.90;;;21.80;94.20;;;22.05;100.00;98035.72;4975646;28;20058;-69
2022/05/14 09:18:11;;;;;;;4.25;0.73;;;21.80;93.20;;;22.77;100.00;98027.91;4983483;28;20327;-69
2022/05/14 09:20:49;;;;;;;5.57;0.80;;;22.50;92.70;;;23.05;98.12;98028.22;4982208;28;20097;-69
2022/05/14 09:23:49;;;;;;;6.80;0.60;;;22.80;90.90;;;23.07;100.00;98033.41;4983664;28;20082;-69
2022/05/14 09:26:23;;;;;;;3.58;0.75;;;23.30;91.50;;;21.30;100.00;98038.19;4986586;28;20079;-70
2022/05/14 09:29:14;;;;;;;4.35;1.00;;;23.20;91.00;;;20.50;100.00;98050.53;4983346;28;20043;-69
2022/05/14 09:32:02;;;;;;;3.67;0.80;;;23.00;90.10;;;21.07;100.00;98037.34;4974563;28;20484;-70
2022/05/14 09:34:36;;;;;;;4.32;0.80;;;22.60;90.70;;;22.39;100.00;98036.44;4983900;28;20058;-68
2022/05/14 09:37:11;;;;;;;3.17;0.60;;;22.30;90.80;;;24.07;98.37;98035.19;4982644;28;20794;-69
2022/05/14 09:39:40;;;;;;;2.95;0.52;;;22.70;91.30;;;24.91;100.00;98024.75;4982734;28;21631;-68
2022/05/14 09:42:44;;;;;;;6.97;0.98;;;23.30;92.70;;;22.10;100.00;98044.13;4978092;28;20259;-68
2022/05/14 09:45:24;;;;;;;4.00;0.68;;;23.60;88.40;;;22.18;99.46;98046.97;4982267;28;20042;-70
2022/05/14 09:47:52;;;;;;;7.13;0.90;;;23.50;87.70;;;21.40;100.00;98040.09;4981490;28;20050;-70
2022/05/14 09:50:29;;;;;;;4.55;0.73;;;23.40;88.00;;;21.27;100.00;98045.50;4980561;28;20129;-68
2022/05/14 09:53:05;;;;;;;6.00;0.70;;;23.20;89.40;;;22.00;100.00;98045.84;4975656;28;20050;-65
2022/05/14 09:56:16;;;;;;;5.35;1.00;;;23.10;87.50;;;21.70;100.00;98037.66;4981077;28;20101;-66
2022/05/14 09:59:15;;;;;;;4.65;0.98;;;23.10;87.70;;;22.19;100.00;98043.38;5014976;28;20133;-66
2022/05/14 10:02:06;;;;;;;5.10;1.50;;;23.00;88.70;;;23.25;96.46;98029.16;4981163;28;20078;-66
2022/05/14 10:05:14;;;;;;;4.68;0.77;;;23.00;88.60;;;23.18;96.50;98020.91;4984786;28;20046;-66
2022/05/14 10:07:54;;;;;;;2.50;0.60;;;23.20;88.80;;;23.00;96.05;98030.44;4979059;28;20042;-67
2022/05/14 10:10:46;;;;;;;5.45;0.73;;;23.30;88.30;;;23.86;96.43;98027.38;4982395;28;20476;-67
2022/05/14 10:13:39;;;;;;;2.35;0.50;;;23.20;88.90;;;25.14;91.31;98016.44;4982146;28;20046;-67
2022/05/14 10:16:31;;;;;;;5.03;0.60;;;23.70;87.10;;;25.40;88.56;98017.44;4981142;28;20137;-66
2022/05/14 10:19:11;;;;;;;5.40;0.70;;;24.60;86.40;;;24.11;94.74;98020.69;4980206;28;20575;-67
2022/05/14 10:22:16;;;;;;;2.10;0.60;;;24.30;85.70;;;24.31;94.89;98021.50;4978172;28;20544;-65
2022/05/14 10:28:32;;;;;;;3.00;0.60;;;24.40;87.20;;;24.99;90.02;98016.88;4979198;28;20055;-66
2022/05/14 10:31:27;;;;;;;3.95;0.55;;;25.00;84.40;;;27.01;87.66;98007.72;4979988;28;20057;-66
2022/05/14 10:34:02;;;;;;;2.65;0.55;;;25.10;86.20;;;27.19;83.70;98005.78;4982572;28;20435;-67
2022/05/14 10:36:43;;;;;;;2.30;0.50;;;25.60;83.50;;;26.70;87.95;98003.69;4975266;28;20141;-67
2022/05/14 10:39:24;;;;;;;4.70;0.95;;;25.90;84.40;;;22.33;97.79;98029.06;4979665;28;20082;-66
2022/05/14 10:41:57;;;;;;;;;;;25.40;81.50;;;24.69;94.54;98014.47;4977541;28;20138;-67
2022/05/14 10:44:45;;;;;;;4.45;0.70;;;25.00;83.00;;;25.31;89.25;98007.69;4996750;28;20609;-67
2022/05/14 10:47:13;;;;;;;4.50;0.85;;;25.20;84.20;;;24.76;93.07;97999.66;4982939;28;20476;-67
2022/05/14 10:50:06;;;;;;;6.07;0.85;;;25.00;82.80;;;23.20;93.90;98012.81;4979087;28;20086;-67
2022/05/14 10:52:39;;;;;;;3.50;0.60;;;25.00;80.70;;;22.46;96.01;98015.63;4985551;28;20568;-66
2022/05/14 10:55:26;;;;;;;7.03;0.80;;;24.80;80.60;;;22.67;99.10;98003.22;4980277;28;20600;-67
2022/05/14 10:58:09;;;;;;;7.68;0.80;;;24.50;81.70;;;24.53;94.29;97996.50;4979926;28;20046;-67
2022/05/14 11:00:40;;;;;;;6.13;0.80;;;24.50;82.50;;;25.50;90.02;97997.94;4979166;28;20078;-67
2022/05/14 11:03:13;;;;;;;;;;;25.10;82.10;;;23.47;95.15;97995.44;4983173;28;20054;-67
2022/05/14 11:06:10;;;;;;;5.18;0.47;;;25.10;81.00;;;21.93;100.00;98000.59;4980712;28;19936;-67
2022/05/14 11:08:44;;;;;;;2.85;0.60;;;24.80;80.10;;;24.84;95.62;97981.19;4981878;28;20104;-67
2022/05/14 11:11:14;;;;;;;3.40;0.63;;;24.90;83.60;;;26.15;90.16;97985.31;4964506;28;20109;-67
2022/05/14 11:14:13;;;;;;;4.25;0.60;;;25.50;82.50;;;26.82;83.88;97977.66;4978252;28;20101;-66
2022/05/14 11:16:49;;;;;;;1.27;0.60;;;25.90;80.50;;;26.89;84.33;97978.69;4976562;28;20061;-67
2022/05/14 11:19:33;;;;;;;3.05;0.60;;;26.30;79.90;;;27.39;82.13;97977.06;4978464;28;20117;-66
2022/05/14 11:22:01;;;;;;;3.67;0.65;;;26.70;80.10;;;27.82;84.37;97974.31;4979916;28;20073;-66